sensor_id;sensor_type;location;lat;lon;timestamp;P1;durP1;ratioP1;P2;durP2;ratioP2
70073;SDS011;57445;51.058;3.698;2022-08-21T00:00:17;9.57;;;3.10;;
70073;SDS011;57445;51.058;3.698;2022-08-21T00:02:49;8.35;;;3.05;;
70073;SDS011;57445;51.058;3.698;2022-08-21T00:05:25;8.45;;;3.25;;
70073;SDS011;57445;51.058;3.698;2022-08-21T00:07:54;9.70;;;2.97;;
70073;SDS011;57445;51.058;3.698;2022-08-21T00:10:22;7.00;;;2.90;;
70073;SDS011;57445;51.058;3.698;2022-08-21T00:12:51;9.43;;;3.13;;
70073;SDS011;57445;51.058;3.698;2022-08-21T00:15:20;12.35;;;5.97;;
70073;SDS011;57445;51.058;3.698;2022-08-21T00:17:52;11.18;;;4.55;;
70073;SDS011;57445;51.058;3.698;2022-08-21T00:20:20;8.00;;;3.05;;
70073;SDS011;57445;51.058;3.698;2022-08-21T00:22:55;9.68;;;3.13;;
70073;SDS011;57445;51.058;3.698;2022-08-21T00:25:27;11.07;;;4.00;;
70073;SDS011;57445;51.058;3.698;2022-08-21T00:27:59;11.30;;;4.65;;
70073;SDS011;57445;51.058;3.698;2022-08-21T00:30:27;7.97;;;3.80;;
70073;SDS011;57445;51.058;3.698;2022-08-21T00:32:56;8.55;;;3.45;;
70073;SDS011;57445;51.058;3.698;2022-08-21T00:35:25;10.18;;;3.15;;
70073;SDS011;57445;51.058;3.698;2022-08-21T00:38:01;7.65;;;3.08;;
70073;SDS011;57445;51.058;3.698;2022-08-21T00:40:37;8.50;;;3.70;;
70073;SDS011;57445;51.058;3.698;2022-08-21T00:43:12;7.50;;;3.60;;
70073;SDS011;57445;51.058;3.698;2022-08-21T00:45:41;10.77;;;3.08;;
70073;SDS011;57445;51.058;3.698;2022-08-21T00:48:08;8.27;;;4.13;;
70073;SDS011;57445;51.058;3.698;2022-08-21T00:50:42;11.68;;;4.38;;
70073;SDS011;57445;51.058;3.698;2022-08-21T00:53:15;7.32;;;3.78;;
70073;SDS011;57445;51.058;3.698;2022-08-21T00:55:44;7.30;;;3.53;;
70073;SDS011;57445;51.058;3.698;2022-08-21T00:58:17;11.57;;;4.57;;
70073;SDS011;57445;51.058;3.698;2022-08-21T01:00:46;11.95;;;3.60;;
70073;SDS011;57445;51.058;3.698;2022-08-21T01:03:16;9.85;;;3.60;;
70073;SDS011;57445;51.058;3.698;2022-08-21T01:05:46;9.50;;;3.55;;
70073;SDS011;57445;51.058;3.698;2022-08-21T01:08:21;9.82;;;4.47;;
70073;SDS011;57445;51.058;3.698;2022-08-21T01:10:50;7.75;;;4.05;;
70073;SDS011;57445;51.058;3.698;2022-08-21T01:13:24;10.07;;;4.07;;
70073;SDS011;57445;51.058;3.698;2022-08-21T01:15:53;10.38;;;4.18;;
70073;SDS011;57445;51.058;3.698;2022-08-21T01:18:23;8.57;;;3.38;;
70073;SDS011;57445;51.058;3.698;2022-08-21T01:21:00;8.77;;;3.08;;
70073;SDS011;57445;51.058;3.698;2022-08-21T01:23:35;10.32;;;3.53;;
70073;SDS011;57445;51.058;3.698;2022-08-21T01:26:05;7.63;;;2.97;;
70073;SDS011;57445;51.058;3.698;2022-08-21T01:28:40;7.40;;;2.78;;
70073;SDS011;57445;51.058;3.698;2022-08-21T01:31:19;6.20;;;2.90;;
70073;SDS011;57445;51.058;3.698;2022-08-21T01:33:50;8.05;;;2.50;;
70073;SDS011;57445;51.058;3.698;2022-08-21T01:36:19;9.15;;;2.90;;
70073;SDS011;57445;51.058;3.698;2022-08-21T01:38:52;15.20;;;7.85;;
70073;SDS011;57445;51.058;3.698;2022-08-21T01:41:19;11.32;;;4.75;;
70073;SDS011;57445;51.058;3.698;2022-08-21T01:43:47;16.30;;;9.48;;
70073;SDS011;57445;51.058;3.698;2022-08-21T01:46:20;20.27;;;13.57;;
70073;SDS011;57445;51.058;3.698;2022-08-21T01:48:52;19.67;;;10.95;;
70073;SDS011;57445;51.058;3.698;2022-08-21T01:51:25;9.23;;;4.47;;
70073;SDS011;57445;51.058;3.698;2022-08-21T01:53:58;10.20;;;3.70;;
70073;SDS011;57445;51.058;3.698;2022-08-21T01:56:35;7.72;;;3.58;;
70073;SDS011;57445;51.058;3.698;2022-08-21T01:59:04;7.78;;;3.25;;
70073;SDS011;57445;51.058;3.698;2022-08-21T02:01:36;7.53;;;2.78;;
70073;SDS011;57445;51.058;3.698;2022-08-21T02:04:09;10.13;;;3.10;;
70073;SDS011;57445;51.058;3.698;2022-08-21T02:06:43;8.43;;;2.90;;
70073;SDS011;57445;51.058;3.698;2022-08-21T02:09:15;7.47;;;2.88;;
70073;SDS011;57445;51.058;3.698;2022-08-21T02:11:48;9.82;;;3.25;;
70073;SDS011;57445;51.058;3.698;2022-08-21T02:14:15;9.07;;;2.70;;
70073;SDS011;57445;51.058;3.698;2022-08-21T02:16:48;7.80;;;2.95;;
70073;SDS011;57445;51.058;3.698;2022-08-21T02:19:15;9.25;;;3.10;;
70073;SDS011;57445;51.058;3.698;2022-08-21T02:21:49;8.98;;;2.83;;
70073;SDS011;57445;51.058;3.698;2022-08-21T02:24:21;10.82;;;2.80;;
70073;SDS011;57445;51.058;3.698;2022-08-21T02:26:53;11.63;;;3.28;;
70073;SDS011;57445;51.058;3.698;2022-08-21T02:29:25;7.55;;;2.83;;
70073;SDS011;57445;51.058;3.698;2022-08-21T02:31:53;8.52;;;3.00;;
70073;SDS011;57445;51.058;3.698;2022-08-21T02:34:20;6.97;;;2.80;;
70073;SDS011;57445;51.058;3.698;2022-08-21T02:36:49;8.35;;;3.08;;
70073;SDS011;57445;51.058;3.698;2022-08-21T02:39:18;9.80;;;3.28;;
70073;SDS011;57445;51.058;3.698;2022-08-21T02:41:50;8.80;;;2.92;;
70073;SDS011;57445;51.058;3.698;2022-08-21T02:44:18;8.07;;;2.83;;
70073;SDS011;57445;51.058;3.698;2022-08-21T02:46:46;7.57;;;2.83;;
70073;SDS011;57445;51.058;3.698;2022-08-21T02:49:13;10.07;;;2.88;;
70073;SDS011;57445;51.058;3.698;2022-08-21T02:51:45;7.28;;;3.05;;
70073;SDS011;57445;51.058;3.698;2022-08-21T02:54:14;7.80;;;3.00;;
70073;SDS011;57445;51.058;3.698;2022-08-21T02:56:46;12.23;;;3.08;;
70073;SDS011;57445;51.058;3.698;2022-08-21T02:59:18;10.27;;;3.03;;
70073;SDS011;57445;51.058;3.698;2022-08-21T03:01:46;6.68;;;2.72;;
70073;SDS011;57445;51.058;3.698;2022-08-21T03:04:18;7.45;;;2.50;;
70073;SDS011;57445;51.058;3.698;2022-08-21T03:06:50;8.63;;;3.05;;
70073;SDS011;57445;51.058;3.698;2022-08-21T03:09:24;7.40;;;2.92;;
70073;SDS011;57445;51.058;3.698;2022-08-21T03:11:51;11.38;;;3.00;;
70073;SDS011;57445;51.058;3.698;2022-08-21T03:14:19;12.43;;;3.25;;
70073;SDS011;57445;51.058;3.698;2022-08-21T03:16:47;7.45;;;2.75;;
70073;SDS011;57445;51.058;3.698;2022-08-21T03:19:15;11.65;;;2.90;;
70073;SDS011;57445;51.058;3.698;2022-08-21T03:21:48;8.30;;;2.70;;
70073;SDS011;57445;51.058;3.698;2022-08-21T03:24:20;8.95;;;2.80;;
70073;SDS011;57445;51.058;3.698;2022-08-21T03:26:49;8.60;;;2.58;;
70073;SDS011;57445;51.058;3.698;2022-08-21T03:29:21;9.52;;;2.88;;
70073;SDS011;57445;51.058;3.698;2022-08-21T03:31:48;8.70;;;2.70;;
70073;SDS011;57445;51.058;3.698;2022-08-21T03:34:19;10.90;;;3.28;;
70073;SDS011;57445;51.058;3.698;2022-08-21T03:36:47;8.68;;;2.88;;
70073;SDS011;57445;51.058;3.698;2022-08-21T03:39:15;8.57;;;2.83;;
70073;SDS011;57445;51.058;3.698;2022-08-21T03:41:43;10.55;;;3.03;;
70073;SDS011;57445;51.058;3.698;2022-08-21T03:44:12;9.02;;;3.13;;
70073;SDS011;57445;51.058;3.698;2022-08-21T03:46:44;9.23;;;2.80;;
70073;SDS011;57445;51.058;3.698;2022-08-21T03:49:16;8.88;;;2.70;;
70073;SDS011;57445;51.058;3.698;2022-08-21T03:51:48;10.52;;;3.03;;
70073;SDS011;57445;51.058;3.698;2022-08-21T03:54:16;12.95;;;3.20;;
70073;SDS011;57445;51.058;3.698;2022-08-21T03:56:48;9.55;;;3.58;;
70073;SDS011;57445;51.058;3.698;2022-08-21T03:59:17;10.63;;;3.17;;
70073;SDS011;57445;51.058;3.698;2022-08-21T04:01:51;8.45;;;2.70;;
70073;SDS011;57445;51.058;3.698;2022-08-21T04:04:19;9.07;;;2.85;;
70073;SDS011;57445;51.058;3.698;2022-08-21T04:06:47;9.88;;;3.05;;
70073;SDS011;57445;51.058;3.698;2022-08-21T04:09:20;11.05;;;3.70;;
70073;SDS011;57445;51.058;3.698;2022-08-21T04:11:48;8.45;;;3.22;;
70073;SDS011;57445;51.058;3.698;2022-08-21T04:14:17;9.68;;;3.33;;
70073;SDS011;57445;51.058;3.698;2022-08-21T04:16:50;9.20;;;3.00;;
70073;SDS011;57445;51.058;3.698;2022-08-21T04:19:22;10.82;;;3.28;;
70073;SDS011;57445;51.058;3.698;2022-08-21T04:21:49;10.00;;;3.58;;
70073;SDS011;57445;51.058;3.698;2022-08-21T04:24:21;8.45;;;2.97;;
70073;SDS011;57445;51.058;3.698;2022-08-21T04:26:53;9.23;;;3.15;;
70073;SDS011;57445;51.058;3.698;2022-08-21T04:29:28;11.52;;;3.33;;
70073;SDS011;57445;51.058;3.698;2022-08-21T04:32:00;10.77;;;3.35;;
70073;SDS011;57445;51.058;3.698;2022-08-21T04:34:27;8.57;;;3.05;;
70073;SDS011;57445;51.058;3.698;2022-08-21T04:36:59;6.95;;;3.25;;
70073;SDS011;57445;51.058;3.698;2022-08-21T04:39:31;10.63;;;3.20;;
70073;SDS011;57445;51.058;3.698;2022-08-21T04:41:59;10.35;;;3.70;;
70073;SDS011;57445;51.058;3.698;2022-08-21T04:44:33;11.90;;;3.67;;
70073;SDS011;57445;51.058;3.698;2022-08-21T04:47:00;8.90;;;3.17;;
70073;SDS011;57445;51.058;3.698;2022-08-21T04:49:32;9.27;;;3.42;;
70073;SDS011;57445;51.058;3.698;2022-08-21T04:52:05;10.57;;;3.65;;
70073;SDS011;57445;51.058;3.698;2022-08-21T04:54:32;9.32;;;3.85;;
70073;SDS011;57445;51.058;3.698;2022-08-21T04:57:01;8.45;;;3.55;;
70073;SDS011;57445;51.058;3.698;2022-08-21T04:59:33;11.00;;;3.30;;
70073;SDS011;57445;51.058;3.698;2022-08-21T05:04:37;10.93;;;3.33;;
70073;SDS011;57445;51.058;3.698;2022-08-21T05:07:10;8.93;;;3.53;;
70073;SDS011;57445;51.058;3.698;2022-08-21T05:09:46;10.05;;;3.65;;
70073;SDS011;57445;51.058;3.698;2022-08-21T05:12:18;10.43;;;3.50;;
70073;SDS011;57445;51.058;3.698;2022-08-21T05:14:52;12.55;;;4.20;;
70073;SDS011;57445;51.058;3.698;2022-08-21T05:17:20;11.20;;;3.65;;
70073;SDS011;57445;51.058;3.698;2022-08-21T05:19:49;9.55;;;3.30;;
70073;SDS011;57445;51.058;3.698;2022-08-21T05:22:21;9.40;;;3.40;;
70073;SDS011;57445;51.058;3.698;2022-08-21T05:24:54;8.07;;;3.20;;
70073;SDS011;57445;51.058;3.698;2022-08-21T05:27:28;11.38;;;3.70;;
70073;SDS011;57445;51.058;3.698;2022-08-21T05:30:02;10.75;;;3.45;;
70073;SDS011;57445;51.058;3.698;2022-08-21T05:32:30;9.57;;;3.20;;
70073;SDS011;57445;51.058;3.698;2022-08-21T05:34:58;9.50;;;3.30;;
70073;SDS011;57445;51.058;3.698;2022-08-21T05:37:26;9.02;;;3.45;;
70073;SDS011;57445;51.058;3.698;2022-08-21T05:39:53;11.00;;;3.63;;
70073;SDS011;57445;51.058;3.698;2022-08-21T05:42:21;8.90;;;3.40;;
70073;SDS011;57445;51.058;3.698;2022-08-21T05:44:49;11.02;;;3.50;;
70073;SDS011;57445;51.058;3.698;2022-08-21T05:47:18;10.95;;;3.13;;
70073;SDS011;57445;51.058;3.698;2022-08-21T05:49:50;9.73;;;3.53;;
70073;SDS011;57445;51.058;3.698;2022-08-21T05:52:22;8.05;;;3.22;;
70073;SDS011;57445;51.058;3.698;2022-08-21T05:54:54;9.98;;;3.00;;
70073;SDS011;57445;51.058;3.698;2022-08-21T05:57:22;8.57;;;2.90;;
70073;SDS011;57445;51.058;3.698;2022-08-21T05:59:55;7.22;;;2.70;;
70073;SDS011;57445;51.058;3.698;2022-08-21T06:02:29;6.82;;;2.85;;
70073;SDS011;57445;51.058;3.698;2022-08-21T06:05:01;11.15;;;2.75;;
70073;SDS011;57445;51.058;3.698;2022-08-21T06:07:33;7.47;;;2.70;;
70073;SDS011;57445;51.058;3.698;2022-08-21T06:10:06;8.63;;;2.50;;
70073;SDS011;57445;51.058;3.698;2022-08-21T06:12:34;8.80;;;2.67;;
70073;SDS011;57445;51.058;3.698;2022-08-21T06:15:02;9.45;;;2.53;;
70073;SDS011;57445;51.058;3.698;2022-08-21T06:17:36;8.68;;;3.00;;
70073;SDS011;57445;51.058;3.698;2022-08-21T06:20:04;6.68;;;2.55;;
70073;SDS011;57445;51.058;3.698;2022-08-21T06:22:36;7.55;;;2.47;;
70073;SDS011;57445;51.058;3.698;2022-08-21T06:25:09;8.88;;;2.40;;
70073;SDS011;57445;51.058;3.698;2022-08-21T06:27:41;6.78;;;2.33;;
70073;SDS011;57445;51.058;3.698;2022-08-21T06:30:09;7.15;;;2.63;;
70073;SDS011;57445;51.058;3.698;2022-08-21T06:32:38;9.10;;;2.40;;
70073;SDS011;57445;51.058;3.698;2022-08-21T06:35:06;7.95;;;2.35;;
70073;SDS011;57445;51.058;3.698;2022-08-21T06:37:39;7.55;;;2.60;;
70073;SDS011;57445;51.058;3.698;2022-08-21T06:40:11;9.63;;;2.58;;
70073;SDS011;57445;51.058;3.698;2022-08-21T06:42:43;7.97;;;2.58;;
70073;SDS011;57445;51.058;3.698;2022-08-21T06:45:15;9.25;;;2.55;;
70073;SDS011;57445;51.058;3.698;2022-08-21T06:47:44;9.13;;;2.58;;
70073;SDS011;57445;51.058;3.698;2022-08-21T06:50:16;7.53;;;2.20;;
70073;SDS011;57445;51.058;3.698;2022-08-21T06:52:49;7.35;;;2.50;;
70073;SDS011;57445;51.058;3.698;2022-08-21T06:55:30;10.23;;;2.60;;
70073;SDS011;57445;51.058;3.698;2022-08-21T06:58:03;10.43;;;2.88;;
70073;SDS011;57445;51.058;3.698;2022-08-21T07:00:32;9.23;;;2.90;;
70073;SDS011;57445;51.058;3.698;2022-08-21T07:03:02;10.88;;;3.10;;
70073;SDS011;57445;51.058;3.698;2022-08-21T07:05:34;9.60;;;2.53;;
70073;SDS011;57445;51.058;3.698;2022-08-21T07:08:02;6.53;;;2.47;;
70073;SDS011;57445;51.058;3.698;2022-08-21T07:10:34;8.32;;;2.42;;
70073;SDS011;57445;51.058;3.698;2022-08-21T07:13:02;9.25;;;2.72;;
70073;SDS011;57445;51.058;3.698;2022-08-21T07:15:29;6.68;;;2.40;;
70073;SDS011;57445;51.058;3.698;2022-08-21T07:17:57;9.13;;;2.70;;
70073;SDS011;57445;51.058;3.698;2022-08-21T07:20:27;7.95;;;2.58;;
70073;SDS011;57445;51.058;3.698;2022-08-21T07:23:02;9.10;;;2.80;;
70073;SDS011;57445;51.058;3.698;2022-08-21T07:25:33;9.88;;;3.00;;
70073;SDS011;57445;51.058;3.698;2022-08-21T07:28:01;8.90;;;2.60;;
70073;SDS011;57445;51.058;3.698;2022-08-21T07:30:33;9.27;;;2.80;;
70073;SDS011;57445;51.058;3.698;2022-08-21T07:33:05;10.10;;;2.70;;
70073;SDS011;57445;51.058;3.698;2022-08-21T07:35:39;12.75;;;3.03;;
70073;SDS011;57445;51.058;3.698;2022-08-21T07:38:11;10.40;;;3.00;;
70073;SDS011;57445;51.058;3.698;2022-08-21T07:40:39;11.15;;;2.72;;
70073;SDS011;57445;51.058;3.698;2022-08-21T07:43:07;7.90;;;2.50;;
70073;SDS011;57445;51.058;3.698;2022-08-21T07:45:39;11.15;;;2.95;;
70073;SDS011;57445;51.058;3.698;2022-08-21T07:48:12;8.02;;;2.83;;
70073;SDS011;57445;51.058;3.698;2022-08-21T07:50:45;11.38;;;2.97;;
70073;SDS011;57445;51.058;3.698;2022-08-21T07:53:18;12.45;;;3.03;;
70073;SDS011;57445;51.058;3.698;2022-08-21T07:55:50;9.45;;;3.05;;
70073;SDS011;57445;51.058;3.698;2022-08-21T07:58:22;13.07;;;3.45;;
70073;SDS011;57445;51.058;3.698;2022-08-21T08:00:54;8.57;;;3.10;;
70073;SDS011;57445;51.058;3.698;2022-08-21T08:03:27;13.13;;;3.72;;
70073;SDS011;57445;51.058;3.698;2022-08-21T08:06:00;15.60;;;7.80;;
70073;SDS011;57445;51.058;3.698;2022-08-21T08:08:34;8.70;;;3.20;;
70073;SDS011;57445;51.058;3.698;2022-08-21T08:11:07;9.65;;;3.20;;
70073;SDS011;57445;51.058;3.698;2022-08-21T08:13:37;9.48;;;3.17;;
70073;SDS011;57445;51.058;3.698;2022-08-21T08:16:10;9.55;;;3.45;;
70073;SDS011;57445;51.058;3.698;2022-08-21T08:18:42;10.07;;;3.50;;
70073;SDS011;57445;51.058;3.698;2022-08-21T08:21:16;12.40;;;3.00;;
70073;SDS011;57445;51.058;3.698;2022-08-21T08:23:51;8.88;;;3.70;;
70073;SDS011;57445;51.058;3.698;2022-08-21T08:26:18;11.30;;;3.55;;
70073;SDS011;57445;51.058;3.698;2022-08-21T08:28:50;10.68;;;3.63;;
70073;SDS011;57445;51.058;3.698;2022-08-21T08:31:18;9.50;;;3.45;;
70073;SDS011;57445;51.058;3.698;2022-08-21T08:33:46;10.77;;;2.92;;
70073;SDS011;57445;51.058;3.698;2022-08-21T08:36:19;11.18;;;3.20;;
70073;SDS011;57445;51.058;3.698;2022-08-21T08:38:51;9.73;;;2.90;;
70073;SDS011;57445;51.058;3.698;2022-08-21T08:41:19;12.63;;;4.00;;
70073;SDS011;57445;51.058;3.698;2022-08-21T08:43:53;11.60;;;3.33;;
70073;SDS011;57445;51.058;3.698;2022-08-21T08:46:30;9.95;;;3.35;;
70073;SDS011;57445;51.058;3.698;2022-08-21T08:49:07;9.48;;;3.05;;
70073;SDS011;57445;51.058;3.698;2022-08-21T08:51:40;14.00;;;3.47;;
70073;SDS011;57445;51.058;3.698;2022-08-21T08:54:19;12.73;;;3.63;;
70073;SDS011;57445;51.058;3.698;2022-08-21T08:56:57;11.25;;;3.25;;
70073;SDS011;57445;51.058;3.698;2022-08-21T08:59:32;13.77;;;3.55;;
70073;SDS011;57445;51.058;3.698;2022-08-21T09:02:08;9.75;;;2.90;;
70073;SDS011;57445;51.058;3.698;2022-08-21T09:04:43;8.15;;;2.63;;
70073;SDS011;57445;51.058;3.698;2022-08-21T09:07:19;11.80;;;3.75;;
70073;SDS011;57445;51.058;3.698;2022-08-21T09:10:04;9.45;;;2.95;;
70073;SDS011;57445;51.058;3.698;2022-08-21T09:12:40;9.07;;;2.63;;
70073;SDS011;57445;51.058;3.698;2022-08-21T09:15:19;11.75;;;3.22;;
70073;SDS011;57445;51.058;3.698;2022-08-21T09:18:07;8.90;;;3.08;;
70073;SDS011;57445;51.058;3.698;2022-08-21T09:20:58;9.02;;;2.50;;
70073;SDS011;57445;51.058;3.698;2022-08-21T09:23:43;8.98;;;2.33;;
70073;SDS011;57445;51.058;3.698;2022-08-21T09:26:26;9.60;;;2.80;;
70073;SDS011;57445;51.058;3.698;2022-08-21T09:29:03;10.75;;;2.63;;
70073;SDS011;57445;51.058;3.698;2022-08-21T09:31:38;10.70;;;2.53;;
70073;SDS011;57445;51.058;3.698;2022-08-21T09:34:10;8.82;;;2.67;;
70073;SDS011;57445;51.058;3.698;2022-08-21T09:36:44;11.10;;;2.50;;
70073;SDS011;57445;51.058;3.698;2022-08-21T09:39:23;9.10;;;2.33;;
70073;SDS011;57445;51.058;3.698;2022-08-21T09:41:58;8.88;;;2.53;;
70073;SDS011;57445;51.058;3.698;2022-08-21T09:44:28;8.43;;;2.47;;
70073;SDS011;57445;51.058;3.698;2022-08-21T09:47:02;12.13;;;2.90;;
70073;SDS011;57445;51.058;3.698;2022-08-21T09:49:34;6.68;;;1.92;;
70073;SDS011;57445;51.058;3.698;2022-08-21T09:52:04;11.80;;;2.30;;
70073;SDS011;57445;51.058;3.698;2022-08-21T09:54:46;7.75;;;2.47;;
70073;SDS011;57445;51.058;3.698;2022-08-21T09:57:19;10.80;;;2.60;;
70073;SDS011;57445;51.058;3.698;2022-08-21T10:00:08;8.48;;;2.78;;
70073;SDS011;57445;51.058;3.698;2022-08-21T10:02:42;8.95;;;2.30;;
70073;SDS011;57445;51.058;3.698;2022-08-21T10:05:16;6.90;;;2.22;;
70073;SDS011;57445;51.058;3.698;2022-08-21T10:07:50;8.02;;;2.58;;
70073;SDS011;57445;51.058;3.698;2022-08-21T10:10:20;10.30;;;2.13;;
70073;SDS011;57445;51.058;3.698;2022-08-21T10:12:53;9.45;;;2.22;;
70073;SDS011;57445;51.058;3.698;2022-08-21T10:15:28;8.05;;;2.22;;
70073;SDS011;57445;51.058;3.698;2022-08-21T10:18:07;9.60;;;2.10;;
70073;SDS011;57445;51.058;3.698;2022-08-21T10:20:43;9.00;;;2.42;;
70073;SDS011;57445;51.058;3.698;2022-08-21T10:26:00;6.88;;;2.30;;
70073;SDS011;57445;51.058;3.698;2022-08-21T10:28:40;8.60;;;2.40;;
70073;SDS011;57445;51.058;3.698;2022-08-21T10:31:21;7.53;;;2.15;;
70073;SDS011;57445;51.058;3.698;2022-08-21T10:34:07;7.00;;;2.30;;
70073;SDS011;57445;51.058;3.698;2022-08-21T10:36:54;12.65;;;2.95;;
70073;SDS011;57445;51.058;3.698;2022-08-21T10:39:32;7.55;;;1.92;;
70073;SDS011;57445;51.058;3.698;2022-08-21T10:42:11;7.20;;;2.05;;
70073;SDS011;57445;51.058;3.698;2022-08-21T10:44:59;10.20;;;2.13;;
70073;SDS011;57445;51.058;3.698;2022-08-21T10:47:39;8.23;;;2.40;;
70073;SDS011;57445;51.058;3.698;2022-08-21T10:50:12;10.18;;;2.22;;
70073;SDS011;57445;51.058;3.698;2022-08-21T10:52:49;8.88;;;2.08;;
70073;SDS011;57445;51.058;3.698;2022-08-21T10:55:48;7.72;;;2.30;;
70073;SDS011;57445;51.058;3.698;2022-08-21T10:58:25;9.47;;;2.40;;
70073;SDS011;57445;51.058;3.698;2022-08-21T11:00:57;8.43;;;2.47;;
70073;SDS011;57445;51.058;3.698;2022-08-21T11:03:37;8.95;;;2.03;;
70073;SDS011;57445;51.058;3.698;2022-08-21T11:06:09;7.95;;;2.00;;
70073;SDS011;57445;51.058;3.698;2022-08-21T11:08:42;8.45;;;2.20;;
70073;SDS011;57445;51.058;3.698;2022-08-21T11:11:18;8.45;;;2.10;;
70073;SDS011;57445;51.058;3.698;2022-08-21T11:13:58;6.88;;;2.10;;
70073;SDS011;57445;51.058;3.698;2022-08-21T11:16:31;7.85;;;1.88;;
70073;SDS011;57445;51.058;3.698;2022-08-21T11:19:05;7.28;;;2.22;;
70073;SDS011;57445;51.058;3.698;2022-08-21T11:21:42;7.65;;;2.15;;
70073;SDS011;57445;51.058;3.698;2022-08-21T11:24:22;10.35;;;2.58;;
70073;SDS011;57445;51.058;3.698;2022-08-21T11:29:29;7.28;;;1.80;;
70073;SDS011;57445;51.058;3.698;2022-08-21T11:32:08;9.48;;;2.67;;
70073;SDS011;57445;51.058;3.698;2022-08-21T11:34:54;7.72;;;2.25;;
70073;SDS011;57445;51.058;3.698;2022-08-21T11:37:42;8.85;;;2.40;;
70073;SDS011;57445;51.058;3.698;2022-08-21T11:40:23;6.78;;;2.00;;
70073;SDS011;57445;51.058;3.698;2022-08-21T11:43:06;6.78;;;1.92;;
70073;SDS011;57445;51.058;3.698;2022-08-21T11:45:47;9.23;;;2.45;;
70073;SDS011;57445;51.058;3.698;2022-08-21T11:48:24;11.18;;;2.50;;
70073;SDS011;57445;51.058;3.698;2022-08-21T11:51:01;8.45;;;2.17;;
70073;SDS011;57445;51.058;3.698;2022-08-21T11:53:38;8.07;;;2.15;;
70073;SDS011;57445;51.058;3.698;2022-08-21T11:56:17;7.10;;;2.15;;
70073;SDS011;57445;51.058;3.698;2022-08-21T11:58:48;8.52;;;2.20;;
70073;SDS011;57445;51.058;3.698;2022-08-21T12:01:21;7.47;;;2.03;;
70073;SDS011;57445;51.058;3.698;2022-08-21T12:03:52;9.90;;;2.47;;
70073;SDS011;57445;51.058;3.698;2022-08-21T12:06:30;10.95;;;2.50;;
70073;SDS011;57445;51.058;3.698;2022-08-21T12:09:04;8.10;;;2.15;;
70073;SDS011;57445;51.058;3.698;2022-08-21T12:11:45;11.93;;;3.03;;
70073;SDS011;57445;51.058;3.698;2022-08-21T12:14:15;8.20;;;2.08;;
70073;SDS011;57445;51.058;3.698;2022-08-21T12:16:45;6.95;;;1.90;;
70073;SDS011;57445;51.058;3.698;2022-08-21T12:19:28;10.68;;;2.33;;
70073;SDS011;57445;51.058;3.698;2022-08-21T12:21:58;6.63;;;2.00;;
70073;SDS011;57445;51.058;3.698;2022-08-21T12:24:38;9.52;;;2.88;;
70073;SDS011;57445;51.058;3.698;2022-08-21T12:27:19;7.93;;;2.45;;
70073;SDS011;57445;51.058;3.698;2022-08-21T12:29:58;6.85;;;2.10;;
70073;SDS011;57445;51.058;3.698;2022-08-21T12:32:29;8.75;;;2.05;;
70073;SDS011;57445;51.058;3.698;2022-08-21T12:35:00;11.77;;;2.67;;
70073;SDS011;57445;51.058;3.698;2022-08-21T12:37:37;9.63;;;2.05;;
70073;SDS011;57445;51.058;3.698;2022-08-21T12:40:17;6.15;;;2.10;;
70073;SDS011;57445;51.058;3.698;2022-08-21T12:42:53;8.50;;;2.13;;
70073;SDS011;57445;51.058;3.698;2022-08-21T12:45:30;9.00;;;2.55;;
70073;SDS011;57445;51.058;3.698;2022-08-21T12:48:03;9.60;;;2.40;;
70073;SDS011;57445;51.058;3.698;2022-08-21T12:50:35;7.82;;;2.10;;
70073;SDS011;57445;51.058;3.698;2022-08-21T12:53:12;7.20;;;2.38;;
70073;SDS011;57445;51.058;3.698;2022-08-21T12:55:51;9.65;;;2.50;;
70073;SDS011;57445;51.058;3.698;2022-08-21T12:58:25;7.63;;;2.33;;
70073;SDS011;57445;51.058;3.698;2022-08-21T13:00:59;10.02;;;2.40;;
70073;SDS011;57445;51.058;3.698;2022-08-21T13:06:04;9.90;;;2.40;;
70073;SDS011;57445;51.058;3.698;2022-08-21T13:08:35;9.00;;;2.20;;
70073;SDS011;57445;51.058;3.698;2022-08-21T13:11:07;7.88;;;2.42;;
70073;SDS011;57445;51.058;3.698;2022-08-21T13:13:36;9.23;;;2.40;;
70073;SDS011;57445;51.058;3.698;2022-08-21T13:16:06;9.48;;;2.63;;
70073;SDS011;57445;51.058;3.698;2022-08-21T13:18:39;8.20;;;2.17;;
70073;SDS011;57445;51.058;3.698;2022-08-21T13:21:27;8.80;;;2.20;;
70073;SDS011;57445;51.058;3.698;2022-08-21T13:24:08;7.97;;;2.22;;
70073;SDS011;57445;51.058;3.698;2022-08-21T13:26:40;6.63;;;2.10;;
70073;SDS011;57445;51.058;3.698;2022-08-21T13:29:08;10.25;;;2.42;;
70073;SDS011;57445;51.058;3.698;2022-08-21T13:31:37;9.27;;;2.30;;
70073;SDS011;57445;51.058;3.698;2022-08-21T13:34:09;8.95;;;1.92;;
70073;SDS011;57445;51.058;3.698;2022-08-21T13:36:42;6.18;;;2.00;;
70073;SDS011;57445;51.058;3.698;2022-08-21T13:39:18;9.85;;;2.30;;
70073;SDS011;57445;51.058;3.698;2022-08-21T13:41:51;8.30;;;2.05;;
70073;SDS011;57445;51.058;3.698;2022-08-21T13:44:24;5.93;;;1.80;;
70073;SDS011;57445;51.058;3.698;2022-08-21T13:47:01;8.57;;;2.25;;
70073;SDS011;57445;51.058;3.698;2022-08-21T13:49:33;9.90;;;2.72;;
70073;SDS011;57445;51.058;3.698;2022-08-21T13:52:13;10.68;;;2.00;;
70073;SDS011;57445;51.058;3.698;2022-08-21T13:54:42;7.90;;;2.33;;
70073;SDS011;57445;51.058;3.698;2022-08-21T13:57:17;8.82;;;2.08;;
70073;SDS011;57445;51.058;3.698;2022-08-21T13:59:45;7.40;;;2.13;;
70073;SDS011;57445;51.058;3.698;2022-08-21T14:02:18;9.63;;;2.42;;
70073;SDS011;57445;51.058;3.698;2022-08-21T14:04:51;7.40;;;2.00;;
70073;SDS011;57445;51.058;3.698;2022-08-21T14:07:24;10.05;;;2.63;;
70073;SDS011;57445;51.058;3.698;2022-08-21T14:09:55;8.25;;;2.35;;
70073;SDS011;57445;51.058;3.698;2022-08-21T14:12:28;8.52;;;2.38;;
70073;SDS011;57445;51.058;3.698;2022-08-21T14:15:06;9.38;;;2.10;;
70073;SDS011;57445;51.058;3.698;2022-08-21T14:17:36;6.82;;;2.30;;
70073;SDS011;57445;51.058;3.698;2022-08-21T14:20:09;8.00;;;2.30;;
70073;SDS011;57445;51.058;3.698;2022-08-21T14:22:45;9.05;;;2.40;;
70073;SDS011;57445;51.058;3.698;2022-08-21T14:25:15;9.10;;;2.50;;
70073;SDS011;57445;51.058;3.698;2022-08-21T14:27:55;10.38;;;2.70;;
70073;SDS011;57445;51.058;3.698;2022-08-21T14:30:32;7.43;;;2.20;;
70073;SDS011;57445;51.058;3.698;2022-08-21T14:33:02;9.93;;;2.25;;
70073;SDS011;57445;51.058;3.698;2022-08-21T14:35:37;9.88;;;2.50;;
70073;SDS011;57445;51.058;3.698;2022-08-21T14:38:13;5.80;;;2.00;;
70073;SDS011;57445;51.058;3.698;2022-08-21T14:40:41;7.85;;;2.10;;
70073;SDS011;57445;51.058;3.698;2022-08-21T14:43:10;8.32;;;2.30;;
70073;SDS011;57445;51.058;3.698;2022-08-21T14:45:38;7.45;;;2.10;;
70073;SDS011;57445;51.058;3.698;2022-08-21T14:48:11;9.05;;;2.20;;
70073;SDS011;57445;51.058;3.698;2022-08-21T14:50:40;8.95;;;2.30;;
70073;SDS011;57445;51.058;3.698;2022-08-21T14:53:14;7.78;;;2.10;;
70073;SDS011;57445;51.058;3.698;2022-08-21T14:55:47;8.63;;;2.42;;
70073;SDS011;57445;51.058;3.698;2022-08-21T14:58:37;10.68;;;2.53;;
70073;SDS011;57445;51.058;3.698;2022-08-21T15:01:06;8.77;;;3.08;;
70073;SDS011;57445;51.058;3.698;2022-08-21T15:03:40;12.20;;;2.65;;
70073;SDS011;57445;51.058;3.698;2022-08-21T15:06:09;8.75;;;2.10;;
70073;SDS011;57445;51.058;3.698;2022-08-21T15:08:42;9.95;;;3.30;;
70073;SDS011;57445;51.058;3.698;2022-08-21T15:11:11;12.43;;;3.17;;
70073;SDS011;57445;51.058;3.698;2022-08-21T15:13:47;11.07;;;2.88;;
70073;SDS011;57445;51.058;3.698;2022-08-21T15:16:28;9.68;;;2.50;;
70073;SDS011;57445;51.058;3.698;2022-08-21T15:19:01;8.15;;;2.25;;
70073;SDS011;57445;51.058;3.698;2022-08-21T15:21:34;8.18;;;2.20;;
70073;SDS011;57445;51.058;3.698;2022-08-21T15:24:02;7.82;;;2.40;;
70073;SDS011;57445;51.058;3.698;2022-08-21T15:26:35;7.25;;;2.05;;